EDFX weather

Hockenheim Airport
Hockenheim, Baden-W├╝rttemberg, Germany

Public forecast

Using degrees Celsius for public forecast. Weather courtesy of forecast.io.

METAR (pilot weather report)

Closest report is Mannheim-City Airport, 8.9 nm (16.5 km) N. Retrieved 2019/09/21 05:20 UTC (21 minutes ago):

EDFM 210520Z 27001KT CAVOK 06/03 Q1022

TAF (pilot weather forecast)

Forecast is more than 12 hours old.

Closest forecast is Mannheim-City Airport, 8.9 nm (16.5 km) N. Retrieved 2012/03/06 06:30 UTC (8 years ago):

TAF EDFM 060519Z 0606/0621 15004KT 9999 FEW040